Time;durP1;ratioP1;P1;durP2;ratioP2;P2;SDS_P1;SDS_P2;PMS_P1;PMS_P2;Temp;Humidity;BMP_temperature;BMP_pressure;BME280_temperature;BME280_humidity;BME280_pressure;Samples;Min_cycle;Max_cycle;Signal;HPM_P1;HPM_P2
2021/08/13 00:00:21;;;;;;;19.73;16.45;;;;;;;15.88;100.00;101746.03;1048309;28;20764;-81
2021/08/13 00:00:53;;;;;;;20.67;17.48;;;;;;;15.90;100.00;101739.06;1048822;28;20193;-80
2021/08/13 00:01:24;;;;;;;19.80;17.90;;;;;;;15.92;100.00;101746.03;1048768;28;20044;-80
2021/08/13 00:01:56;;;;;;;20.42;17.40;;;;;;;15.93;100.00;101746.03;1052906;28;20055;-80
2021/08/13 00:02:28;;;;;;;19.45;17.27;;;;;;;15.89;100.00;101741.69;1056807;28;20396;-80
2021/08/13 00:02:59;;;;;;;17.55;15.32;;;;;;;15.88;100.00;101752.94;1056589;28;20423;-80
2021/08/13 00:03:31;;;;;;;19.58;17.50;;;;;;;15.91;100.00;101742.56;1056679;28;20051;-80
2021/08/13 00:04:03;;;;;;;20.45;17.52;;;;;;;15.93;100.00;101737.34;1056663;28;20048;-80
2021/08/13 00:04:35;;;;;;;20.00;17.92;;;;;;;15.93;100.00;101743.44;1052550;28;20113;-81
2021/08/13 00:05:07;;;;;;;20.40;17.60;;;;;;;15.95;100.00;101738.25;1048254;28;20519;-81
2021/08/13 00:05:40;;;;;;;22.00;18.60;;;;;;;15.93;100.00;101738.22;1048871;28;20502;-81
2021/08/13 00:06:12;;;;;;;22.75;18.83;;;;;;;15.94;100.00;101745.19;1049019;28;20049;-81
2021/08/13 00:06:44;;;;;;;19.95;17.23;;;;;;;15.88;100.00;101735.59;1049252;28;20055;-80
2021/08/13 00:07:16;;;;;;;20.98;18.00;;;;;;;15.90;100.00;101740.81;1052380;28;20052;-80
2021/08/13 00:07:47;;;;;;;20.27;18.23;;;;;;;15.96;100.00;101737.38;1053121;28;20059;-81
2021/08/13 00:08:19;;;;;;;21.80;18.55;;;;;;;15.96;100.00;101742.59;1053060;28;20047;-81
2021/08/13 00:08:50;;;;;;;22.98;18.13;;;;;;;15.97;100.00;101746.94;1056405;28;20060;-81
2021/08/13 00:09:22;;;;;;;24.30;19.95;;;;;;;15.94;100.00;101742.59;1056291;28;20435;-81
2021/08/13 00:09:53;;;;;;;21.85;18.95;;;;;;;15.90;100.00;101738.19;1052499;28;20055;-81
2021/08/13 00:10:25;;;;;;;18.85;16.85;;;;;;;15.90;100.00;101743.41;1052257;28;20420;-81
2021/08/13 00:10:56;;;;;;;21.20;18.95;;;;;;;15.91;100.00;101737.34;1048888;28;20105;-80
2021/08/13 00:11:27;;;;;;;19.63;17.55;;;;;;;15.89;100.00;101739.94;1048713;28;20044;-81
2021/08/13 00:11:59;;;;;;;18.75;16.90;;;;;;;15.90;100.00;101740.81;1048184;28;20052;-81
2021/08/13 00:12:30;;;;;;;21.23;18.95;;;;;;;15.89;100.00;101749.50;1051277;28;20503;-80
2021/08/13 00:13:02;;;;;;;18.35;16.45;;;;;;;15.84;100.00;101746.84;1052969;28;20523;-80
2021/08/13 00:13:34;;;;;;;18.88;16.90;;;;;;;15.86;100.00;101746.84;1054411;28;20097;-81
2021/08/13 00:14:07;;;;;;;23.63;15.52;;;;;;;15.84;100.00;101733.81;1056100;28;20188;-81
2021/08/13 00:14:39;;;;;;;15.30;13.75;;;;;;;15.76;100.00;101740.69;1052416;28;20048;-81
2021/08/13 00:15:10;;;;;;;14.25;12.85;;;;;;;15.68;100.00;101741.50;1052491;28;20048;-81
2021/08/13 00:15:42;;;;;;;15.40;13.25;;;;;;;15.61;100.00;101741.41;1053293;28;20495;-81
2021/08/13 00:16:14;;;;;;;13.07;11.88;;;;;;;15.54;100.00;101747.44;1056635;28;20048;-81
2021/08/13 00:16:45;;;;;;;14.25;11.65;;;;;;;15.52;100.00;101748.28;1052989;28;20050;-80
2021/08/13 00:17:17;;;;;;;12.27;11.02;;;;;;;15.46;100.00;101749.09;1056620;28;20384;-80
2021/08/13 00:17:48;;;;;;;11.98;10.75;;;;;;;15.44;100.00;101743.00;1052342;28;20071;-80
2021/08/13 00:18:20;;;;;;;18.27;12.30;;;;;;;15.42;100.00;101749.91;1052356;28;20404;-80
2021/08/13 00:18:51;;;;;;;16.75;14.18;;;;;;;15.43;100.00;101743.88;1052954;28;20048;-80
2021/08/13 00:19:23;;;;;;;19.15;13.52;;;;;;;15.43;100.00;101740.34;1052533;28;20048;-79
2021/08/13 00:19:54;;;;;;;13.82;12.13;;;;;;;15.37;100.00;101736.88;1048236;28;20433;-79
2021/08/13 00:20:26;;;;;;;14.45;12.30;;;;;;;15.44;100.00;101740.41;1048653;28;20048;-80
2021/08/13 00:20:57;;;;;;;17.20;14.02;;;;;;;15.51;100.00;101742.19;1048592;28;20550;-79
2021/08/13 00:21:29;;;;;;;15.10;13.52;;;;;;;15.54;100.00;101744.84;1052433;28;20052;-79
2021/08/13 00:22:01;;;;;;;13.55;12.13;;;;;;;15.51;100.00;101746.53;1052280;28;20083;-79
2021/08/13 00:22:32;;;;;;;16.38;11.13;;;;;;;15.46;100.00;101745.63;1052477;28;20539;-80
2021/08/13 00:23:04;;;;;;;15.15;11.43;;;;;;;15.43;100.00;101741.25;1052863;28;20055;-80
2021/08/13 00:23:35;;;;;;;10.73;9.63;;;;;;;15.37;100.00;101743.78;1056087;28;20379;-80
2021/08/13 00:24:07;;;;;;;13.00;10.32;;;;;;;15.34;100.00;101743.78;1056745;28;20052;-80
2021/08/13 00:24:38;;;;;;;15.48;10.55;;;;;;;15.31;100.00;101749.81;1056599;28;20055;-81
2021/08/13 00:25:10;;;;;;;12.07;9.18;;;;;;;15.28;100.00;101744.59;1052833;28;20363;-80
2021/08/13 00:25:42;;;;;;;11.90;9.80;;;;;;;15.26;100.00;101748.00;1056559;28;20052;-80
2021/08/13 00:26:13;;;;;;;14.32;10.70;;;;;;;15.28;100.00;101747.19;1052304;28;20044;-80
2021/08/13 00:26:45;;;;;;;13.65;11.02;;;;;;;15.28;100.00;101747.19;1048729;28;20053;-80
2021/08/13 00:27:17;;;;;;;11.85;10.65;;;;;;;15.30;100.00;101749.81;1052434;28;20443;-80
2021/08/13 00:27:48;;;;;;;12.13;10.60;;;;;;;15.28;100.00;101744.59;1052919;28;20392;-80
2021/08/13 00:28:20;;;;;;;11.38;10.25;;;;;;;15.29;100.00;101743.72;1052376;28;20443;-80
2021/08/13 00:28:51;;;;;;;12.10;10.90;;;;;;;15.27;100.00;101741.97;1048263;28;20416;-80
2021/08/13 00:29:23;;;;;;;13.55;11.75;;;;;;;15.29;100.00;101745.47;1044594;28;20048;-81
2021/08/13 00:29:54;;;;;;;12.55;11.00;;;;;;;15.29;100.00;101746.31;1044510;28;20049;-80
2021/08/13 00:30:26;;;;;;;11.98;10.88;;;;;;;15.31;100.00;101738.50;1048539;28;20063;-80
2021/08/13 00:30:58;;;;;;;12.25;10.30;;;;;;;15.33;100.00;101747.25;1048780;28;20047;-80
2021/08/13 00:31:29;;;;;;;13.27;10.98;;;;;;;15.31;100.00;101743.72;1048783;28;20048;-80
2021/08/13 00:32:01;;;;;;;15.85;10.80;;;;;;;15.31;100.00;101744.59;1052498;28;20048;-80
2021/08/13 00:32:32;;;;;;;12.65;11.15;;;;;;;15.32;100.00;101751.59;1052772;28;20048;-80
2021/08/13 00:33:04;;;;;;;13.88;12.40;;;;;;;15.34;100.00;101749.84;1052946;28;20047;-79
2021/08/13 00:33:35;;;;;;;14.77;12.70;;;;;;;15.34;100.00;101744.63;1052607;28;20048;-80
2021/08/13 00:34:07;;;;;;;16.52;12.82;;;;;;;15.35;100.00;101749.00;1052477;28;20048;-80
2021/08/13 00:34:38;;;;;;;13.18;11.88;;;;;;;15.35;100.00;101750.72;1052289;28;20048;-80
2021/08/13 00:35:10;;;;;;;14.75;12.20;;;;;;;15.35;100.00;101750.72;1052995;28;20055;-80
2021/08/13 00:35:41;;;;;;;11.68;10.57;;;;;;;15.35;100.00;101755.94;1052261;28;20048;-80
2021/08/13 00:36:13;;;;;;;13.27;11.40;;;;;;;15.34;100.00;101751.59;1048212;28;20049;-80
2021/08/13 00:36:45;;;;;;;14.43;13.00;;;;;;;15.35;100.00;101751.59;1052915;28;20415;-80
2021/08/13 00:37:16;;;;;;;12.60;10.90;;;;;;;15.34;100.00;101759.41;1052989;28;20055;-81
2021/08/13 00:37:48;;;;;;;12.40;11.15;;;;;;;15.29;100.00;101759.38;1052726;28;20054;-80
2021/08/13 00:38:19;;;;;;;12.13;10.90;;;;;;;15.26;100.00;101755.84;1051933;28;20059;-80
2021/08/13 00:38:51;;;;;;;11.98;10.63;;;;;;;15.27;100.00;101752.41;1044600;28;20052;-80
2021/08/13 00:39:22;;;;;;;12.82;10.85;;;;;;;15.30;100.00;101758.50;1048520;28;20053;-80
2021/08/13 00:39:54;;;;;;;13.73;11.02;;;;;;;15.32;100.00;101764.63;1052769;28;20044;-80
2021/08/13 00:40:25;;;;;;;14.52;12.82;;;;;;;15.36;100.00;101766.38;1052798;28;20048;-80
2021/08/13 00:40:57;;;;;;;12.25;11.05;;;;;;;15.34;100.00;101765.50;1056651;28;20051;-80
2021/08/13 00:41:29;;;;;;;13.70;12.30;;;;;;;15.35;100.00;101763.75;1052308;28;20062;-80
2021/08/13 00:42:01;;;;;;;13.07;10.63;;;;;;;15.29;100.00;101758.50;1052359;28;20047;-80
2021/08/13 00:42:32;;;;;;;12.10;10.90;;;;;;;15.25;100.00;101760.19;1052502;28;20048;-80
2021/08/13 00:43:04;;;;;;;13.60;11.80;;;;;;;15.27;100.00;101763.69;1056344;28;20047;-80
2021/08/13 00:43:35;;;;;;;14.02;12.52;;;;;;;15.24;100.00;101765.38;1056709;28;20048;-81
2021/08/13 00:44:07;;;;;;;15.35;13.70;;;;;;;15.25;100.00;101767.13;1052777;28;20059;-80
2021/08/13 00:44:38;;;;;;;20.98;14.90;;;;;;;15.23;100.00;101764.50;1052291;28;20550;-80
2021/08/13 00:45:10;;;;;;;15.02;12.48;;;;;;;15.17;100.00;101766.19;1052444;28;20048;-80
2021/08/13 00:45:42;;;;;;;14.70;13.18;;;;;;;15.14;100.00;101767.00;1052333;28;20519;-80
2021/08/13 00:46:14;;;;;;;14.93;12.80;;;;;;;15.11;100.00;101770.47;1051379;28;20476;-80
2021/08/13 00:46:46;;;;;;;13.25;11.85;;;;;;;15.15;100.00;101767.91;1048314;28;20048;-80
2021/08/13 00:47:18;;;;;;;14.35;11.88;;;;;;;15.11;100.00;101764.38;1048868;28;20059;-81
2021/08/13 00:47:49;;;;;;;14.95;11.85;;;;;;;15.11;100.00;101770.47;1052321;28;20044;-81
2021/08/13 00:48:20;;;;;;;15.52;12.50;;;;;;;15.12;100.00;101776.56;1048720;28;20045;-80
2021/08/13 00:48:52;;;;;;;13.10;11.77;;;;;;;15.09;100.00;101769.59;1048605;28;20425;-81
2021/08/13 00:49:23;;;;;;;16.08;13.13;;;;;;;15.10;100.00;101773.06;1052387;28;20044;-81
2021/08/13 00:49:55;;;;;;;14.13;11.57;;;;;;;15.11;100.00;101767.88;1052857;28;20043;-81
2021/08/13 00:50:26;;;;;;;14.02;12.00;;;;;;;15.15;100.00;101771.41;1056376;28;20077;-80
2021/08/13 00:50:59;;;;;;;14.93;12.88;;;;;;;15.18;100.00;101774.03;1054265;28;20056;-80
2021/08/13 00:51:30;;;;;;;14.48;12.30;;;;;;;15.18;100.00;101774.03;1056817;28;20043;-80
2021/08/13 00:52:03;;;;;;;15.50;12.95;;;;;;;15.15;100.00;101775.75;1052414;28;20519;-80
2021/08/13 00:52:34;;;;;;;16.92;12.77;;;;;;;15.18;100.00;101773.16;1052364;28;20048;-81
2021/08/13 00:53:09;;;;;;;13.60;12.20;;;;;;;15.16;100.00;101775.75;1048894;28;20103;-81
2021/08/13 00:53:40;;;;;;;13.27;12.00;;;;;;;15.16;100.00;101775.75;1052326;28;20044;-81
2021/08/13 00:54:12;;;;;;;13.30;11.90;;;;;;;15.15;100.00;101770.53;1049061;28;20044;-81
2021/08/13 00:54:44;;;;;;;12.70;11.40;;;;;;;15.13;100.00;101774.81;1048281;28;20048;-81
2021/08/13 00:55:16;;;;;;;16.05;13.05;;;;;;;15.14;100.00;101774.84;1049598;28;20055;-81
2021/08/13 00:55:49;;;;;;;16.92;12.57;;;;;;;15.16;100.00;101777.47;1048869;28;20049;-81
2021/08/13 00:56:20;;;;;;;16.10;13.13;;;;;;;15.15;100.00;101775.75;1049611;28;20044;-81
2021/08/13 00:56:52;;;;;;;14.20;11.43;;;;;;;15.14;100.00;101768.75;1054107;28;20516;-81
2021/08/13 00:57:23;;;;;;;13.57;11.48;;;;;;;15.10;100.00;101773.06;1057459;28;20074;-81
2021/08/13 00:57:55;;;;;;;14.30;12.90;;;;;;;15.11;100.00;101775.69;1057345;28;20510;-80
2021/08/13 00:58:27;;;;;;;16.95;12.73;;;;;;;15.15;100.00;101783.56;1053079;28;20412;-81
2021/08/13 00:58:58;;;;;;;13.55;12.15;;;;;;;15.17;100.00;101771.41;1049128;28;20407;-80
2021/08/13 00:59:30;;;;;;;13.30;11.55;;;;;;;15.17;100.00;101771.41;1045321;28;20053;-80
2021/08/13 01:00:01;;;;;;;18.23;13.10;;;;;;;15.14;100.00;101772.22;1049401;28;20049;-80
2021/08/13 01:00:34;;;;;;;14.23;11.68;;;;;;;15.15;100.00;101780.94;1049422;28;20055;-80
2021/08/13 01:01:06;;;;;;;13.15;11.75;;;;;;;15.15;100.00;101781.81;1049001;28;20563;-81
2021/08/13 01:01:37;;;;;;;14.25;12.38;;;;;;;15.09;100.00;101780.03;1049766;28;20057;-80
2021/08/13 01:02:09;;;;;;;13.00;11.70;;;;;;;15.11;100.00;101775.69;1049608;28;20529;-80
2021/08/13 01:02:41;;;;;;;16.98;12.45;;;;;;;15.11;100.00;101780.91;1053726;28;20182;-80
2021/08/13 01:03:14;;;;;;;13.70;11.48;;;;;;;15.07;100.00;101773.91;1057293;28;20073;-80
2021/08/13 01:03:46;;;;;;;14.48;11.73;;;;;;;15.05;100.00;101783.44;1053159;28;20044;-80
2021/08/13 01:04:17;;;;;;;12.25;10.85;;;;;;;15.07;100.00;101779.09;1049756;28;20103;-80
2021/08/13 01:04:49;;;;;;;12.98;10.85;;;;;;;15.06;100.00;101782.56;1053088;28;20047;-81
2021/08/13 01:05:21;;;;;;;15.15;11.85;;;;;;;15.05;100.00;101780.84;1049695;28;20055;-80
2021/08/13 01:05:52;;;;;;;17.73;11.57;;;;;;;15.02;100.00;101786.00;1053043;28;20504;-81
2021/08/13 01:06:23;;;;;;;13.50;12.07;;;;;;;15.01;100.00;101783.38;1053650;28;20054;-81
2021/08/13 01:06:55;;;;;;;14.18;12.05;;;;;;;15.02;100.00;101783.38;1057436;28;20048;-81
2021/08/13 01:07:26;;;;;;;14.43;11.90;;;;;;;15.03;100.00;101779.94;1057975;28;20043;-81
2021/08/13 01:07:58;;;;;;;13.95;11.73;;;;;;;15.02;100.00;101774.69;1057451;28;20055;-81
2021/08/13 01:08:29;;;;;;;13.15;11.65;;;;;;;15.04;100.00;101780.81;1057442;28;20487;-81
2021/08/13 01:09:01;;;;;;;13.05;11.65;;;;;;;15.04;100.00;101779.09;1053129;28;20476;-81
2021/08/13 01:09:33;;;;;;;13.65;11.70;;;;;;;15.09;100.00;101787.84;1053226;28;20044;-81
2021/08/13 01:10:06;;;;;;;14.57;11.77;;;;;;;15.08;100.00;101772.16;1053794;28;20044;-81
2021/08/13 01:10:57;;;;;;;13.85;12.27;;;;;;;15.05;100.00;101783.44;1057431;28;20055;-81
2021/08/13 01:11:53;;;;;;;16.02;12.88;;;;;;;15.05;100.00;101788.66;1053023;28;20484;-81
2021/08/13 01:12:31;;;;;;;12.68;11.38;;;;;;;15.07;100.00;101792.13;1052717;28;20047;-81
2021/08/13 01:13:12;;;;;;;14.70;12.50;;;;;;;15.08;100.00;101791.28;1053550;28;20055;-81
2021/08/13 01:14:06;;;;;;;14.25;12.38;;;;;;;15.06;100.00;101786.91;1053229;28;20048;-81
2021/08/13 01:14:48;;;;;;;15.93;12.45;;;;;;;15.07;100.00;101792.13;1052983;28;20047;-81
2021/08/13 01:15:21;;;;;;;15.23;13.68;;;;;;;15.05;100.00;101793.88;1049624;28;20130;-81
2021/08/13 01:15:57;;;;;;;13.80;12.38;;;;;;;15.09;100.00;101794.78;1048850;28;20493;-80
2021/08/13 01:16:30;;;;;;;14.45;11.63;;;;;;;15.08;100.00;101793.88;1051359;28;20055;-80
2021/08/13 01:17:04;;;;;;;13.88;12.43;;;;;;;15.08;100.00;101795.63;1054698;28;20095;-80
2021/08/13 01:17:45;;;;;;;12.43;11.13;;;;;;;15.10;100.00;101793.94;1053122;28;20535;-81
2021/08/13 01:18:26;;;;;;;13.27;11.98;;;;;;;15.09;100.00;101793.06;1053042;28;20044;-81
2021/08/13 01:19:08;;;;;;;23.80;12.85;;;;;;;15.13;100.00;101798.28;1052365;28;20055;-81
2021/08/13 01:20:33;;;;;;;13.95;11.85;;;;;;;15.18;100.00;101794.00;1048880;28;20516;-80
2021/08/13 01:21:32;;;;;;;15.13;11.93;;;;;;;15.19;100.00;101790.53;1040547;28;20053;-81
2021/08/13 01:22:10;;;;;;;14.60;10.95;;;;;;;15.19;100.00;101791.41;1040578;28;20045;-80
2021/08/13 01:22:58;;;;;;;13.35;12.07;;;;;;;15.24;100.00;101788.84;1040531;28;20501;-80
2021/08/13 01:23:53;;;;;;;14.00;12.65;;;;;;;15.25;100.00;101790.59;1047421;28;20533;-80
2021/08/13 01:24:27;;;;;;;14.90;12.18;;;;;;;15.24;100.00;101786.25;1056523;28;20055;-80
2021/08/13 01:25:03;;;;;;;13.85;12.38;;;;;;;15.24;100.00;101787.13;1052912;28;20423;-81
2021/08/13 01:25:39;;;;;;;19.65;13.07;;;;;;;15.28;100.00;101788.91;1048877;28;20044;-81
2021/08/13 01:26:11;;;;;;;16.13;12.85;;;;;;;15.27;100.00;101786.28;1049907;28;20761;-81
2021/08/13 01:27:02;;;;;;;13.50;12.10;;;;;;;15.26;100.00;101782.81;1053109;28;20048;-81
2021/08/13 01:27:35;;;;;;;;;;;;;;;15.30;100.00;101786.31;1056264;28;20048;-81
2021/08/13 01:28:25;;;;;;;13.95;12.43;;;;;;;15.27;100.00;101792.38;1053113;28;19920;-81
2021/08/13 01:29:18;;;;;;;15.75;12.30;;;;;;;15.26;100.00;101788.03;1053114;28;20044;-81
2021/08/13 01:29:55;;;;;;;15.52;12.55;;;;;;;15.26;100.00;101782.81;1057233;28;20050;-81
2021/08/13 01:30:28;;;;;;;18.50;13.18;;;;;;;15.30;100.00;101788.91;1057302;28;20055;-81
2021/08/13 01:31:14;;;;;;;14.93;13.40;;;;;;;15.30;100.00;101791.53;1044748;28;20060;-81
2021/08/13 01:32:00;;;;;;;15.65;12.98;;;;;;;15.31;100.00;101796.75;1048112;28;20103;-81
2021/08/13 01:32:56;;;;;;;13.77;12.30;;;;;;;15.27;100.00;101792.38;1053143;28;20055;-81
2021/08/13 01:33:28;;;;;;;13.65;12.35;;;;;;;15.27;100.00;101791.50;1053907;28;20114;-81
2021/08/13 01:34:06;;;;;;;13.80;12.18;;;;;;;15.23;100.00;101797.53;1057258;28;20047;-81
2021/08/13 01:34:44;;;;;;;13.60;12.20;;;;;;;15.22;100.00;101799.28;1057170;28;20448;-81
2021/08/13 01:35:21;;;;;;;14.98;13.43;;;;;;;15.23;100.00;101797.53;1055419;28;20048;-81
2021/08/13 01:35:53;;;;;;;16.15;14.27;;;;;;;15.22;100.00;101798.41;1053145;28;20055;-81
2021/08/13 01:36:28;;;;;;;14.20;12.80;;;;;;;15.26;100.00;101802.78;1053055;28;20492;-81
2021/08/13 01:37:01;;;;;;;15.55;13.45;;;;;;;15.26;100.00;101798.47;1053338;28;20052;-81
2021/08/13 01:37:35;;;;;;;14.90;13.45;;;;;;;15.28;100.00;101793.25;1057305;28;20043;-81
2021/08/13 01:38:12;;;;;;;15.85;14.00;;;;;;;15.25;100.00;101799.28;1057129;28;20051;-81
2021/08/13 01:38:44;;;;;;;15.57;13.43;;;;;;;15.20;100.00;101794.88;1052766;28;20048;-81
2021/08/13 01:39:17;;;;;;;16.25;14.30;;;;;;;15.21;100.00;101807.97;1048918;28;20472;-81
2021/08/13 01:39:52;;;;;;;17.33;15.50;;;;;;;15.18;100.00;101801.81;1046205;28;20075;-81
2021/08/13 01:40:26;;;;;;;18.80;16.02;;;;;;;15.16;100.00;101795.72;1050018;28;20049;-81
2021/08/13 01:41:02;;;;;;;17.52;15.05;;;;;;;15.17;100.00;101803.56;1050346;28;20056;-81
2021/08/13 01:41:38;;;;;;;19.98;17.45;;;;;;;15.19;100.00;101796.63;1054875;28;20052;-81
2021/08/13 01:42:10;;;;;;;18.35;16.50;;;;;;;15.16;100.00;101791.38;1053059;28;20631;-81
2021/08/13 01:42:44;;;;;;;17.52;15.15;;;;;;;15.17;100.00;101793.13;1054509;28;20047;-81
2021/08/13 01:43:20;;;;;;;17.95;16.08;;;;;;;15.16;100.00;101787.91;1057163;28;20052;-81
2021/08/13 01:43:52;;;;;;;17.30;13.95;;;;;;;15.16;100.00;101787.91;1057284;28;20514;-81
2021/08/13 01:44:25;;;;;;;17.33;14.70;;;;;;;15.14;100.00;101785.25;1053063;28;20055;-81
2021/08/13 01:44:57;;;;;;;16.05;14.43;;;;;;;15.15;100.00;101784.44;1054401;28;20056;-81
2021/08/13 01:45:31;;;;;;;16.70;15.18;;;;;;;15.16;100.00;101788.78;1057339;28;20047;-81
2021/08/13 01:46:04;;;;;;;18.33;16.10;;;;;;;15.19;100.00;101790.53;1054159;28;20048;-81
2021/08/13 01:46:38;;;;;;;15.60;14.00;;;;;;;15.20;100.00;101784.44;1052943;28;20054;-81
2021/08/13 01:47:10;;;;;;;17.25;15.15;;;;;;;15.18;100.00;101791.41;1048827;28;20488;-81
2021/08/13 01:47:43;;;;;;;21.23;15.95;;;;;;;15.15;100.00;101787.03;1048819;28;20052;-81
2021/08/13 01:48:15;;;;;;;15.57;13.90;;;;;;;15.13;100.00;101786.13;1045774;28;20053;-80
2021/08/13 01:48:47;;;;;;;14.95;13.38;;;;;;;15.10;100.00;101781.75;1049546;28;20052;-81
2021/08/13 01:49:19;;;;;;;15.82;14.23;;;;;;;15.09;100.00;101782.63;1048793;28;20052;-81
2021/08/13 01:49:52;;;;;;;16.20;14.02;;;;;;;15.13;100.00;101790.47;1049505;28;20049;-81
2021/08/13 01:50:24;;;;;;;16.88;14.93;;;;;;;15.12;100.00;101789.59;1049540;28;20059;-82
2021/08/13 01:50:57;;;;;;;15.13;13.52;;;;;;;15.17;100.00;101784.44;1049501;28;20481;-82
2021/08/13 01:51:30;;;;;;;16.33;14.63;;;;;;;15.16;100.00;101788.78;1048888;28;20045;-81
2021/08/13 01:52:03;;;;;;;15.38;13.93;;;;;;;15.21;100.00;101791.44;1049809;28;20083;-81
2021/08/13 01:52:36;;;;;;;16.08;14.40;;;;;;;15.21;100.00;101783.63;1049820;28;20423;-81
2021/08/13 01:53:08;;;;;;;15.77;14.13;;;;;;;15.22;100.00;101791.44;1048723;28;20056;-81
2021/08/13 01:53:40;;;;;;;14.57;13.05;;;;;;;15.18;100.00;101779.22;1045610;28;20048;-81
2021/08/13 01:54:14;;;;;;;16.58;14.20;;;;;;;15.20;100.00;101793.19;1049777;28;20400;-81
2021/08/13 01:54:46;;;;;;;15.45;13.95;;;;;;;15.14;100.00;101787.88;1052914;28;20059;-81
2021/08/13 01:55:18;;;;;;;16.20;13.40;;;;;;;15.11;100.00;101785.25;1056516;28;20518;-81
2021/08/13 01:55:52;;;;;;;16.95;14.85;;;;;;;15.14;100.00;101797.41;1057042;28;20051;-81
2021/08/13 01:56:28;;;;;;;14.98;13.38;;;;;;;15.12;100.00;101784.38;1053611;28;20068;-82
2021/08/13 01:57:00;;;;;;;16.63;14.13;;;;;;;15.12;100.00;101779.16;1053079;28;20055;-82
2021/08/13 01:57:32;;;;;;;16.27;13.77;;;;;;;15.11;100.00;101783.50;1053003;28;20044;-82
2021/08/13 01:58:03;;;;;;;17.45;14.38;;;;;;;15.11;100.00;101786.13;1053967;28;20401;-82
2021/08/13 01:58:36;;;;;;;15.95;13.27;;;;;;;15.10;100.00;101779.16;1057130;28;20044;-81
2021/08/13 01:59:08;;;;;;;17.15;13.85;;;;;;;15.07;100.00;101784.31;1053651;28;20044;-81
2021/08/13 01:59:40;;;;;;;16.63;14.93;;;;;;;15.07;100.00;101780.84;1052991;28;20048;-81
2021/08/13 02:00:15;;;;;;;15.65;14.02;;;;;;;15.02;100.00;101783.38;1048900;28;20044;-80
2021/08/13 02:00:49;;;;;;;16.50;14.50;;;;;;;15.02;100.00;101787.72;1045737;28;20053;-80
2021/08/13 02:01:23;;;;;;;15.52;13.93;;;;;;;15.02;100.00;101786.00;1050166;28;20506;-81
2021/08/13 02:01:55;;;;;;;17.00;15.10;;;;;;;15.02;100.00;101780.78;1050458;28;20445;-81
2021/08/13 02:02:27;;;;;;;14.80;13.30;;;;;;;15.00;100.00;101790.31;1049951;28;20520;-81
2021/08/13 02:03:01;;;;;;;16.42;13.73;;;;;;;14.99;100.00;101790.31;1048681;28;20049;-81
2021/08/13 02:03:33;;;;;;;15.60;14.07;;;;;;;14.96;100.00;101793.75;1049650;28;20093;-80
2021/08/13 02:04:05;;;;;;;15.48;13.23;;;;;;;14.95;100.00;101789.41;1049709;28;20053;-80
2021/08/13 02:04:42;;;;;;;15.00;13.40;;;;;;;14.96;100.00;101785.94;1048799;28;20052;-80
2021/08/13 02:05:17;;;;;;;14.75;12.27;;;;;;;14.95;100.00;101784.19;1050160;28;20409;-80
2021/08/13 02:05:52;;;;;;;15.30;13.50;;;;;;;14.92;100.00;101783.25;1050187;28;20048;-80
2021/08/13 02:06:25;;;;;;;14.32;12.88;;;;;;;14.94;100.00;101790.25;1048767;28;20055;-80
2021/08/13 02:06:56;;;;;;;15.38;13.75;;;;;;;14.95;100.00;101785.91;1050332;28;20049;-80
2021/08/13 02:07:29;;;;;;;16.42;14.23;;;;;;;14.94;100.00;101785.03;1054137;28;20070;-80
2021/08/13 02:08:05;;;;;;;19.13;14.27;;;;;;;14.92;100.00;101785.88;1052663;28;20109;-80
2021/08/13 02:08:37;;;;;;;15.93;13.18;;;;;;;14.86;100.00;101784.06;1050000;28;20044;-80
2021/08/13 02:09:10;;;;;;;16.60;14.55;;;;;;;14.82;100.00;101784.91;1048647;28;20516;-80
2021/08/13 02:09:43;;;;;;;14.90;12.98;;;;;;;14.81;100.00;101783.16;1045368;28;20041;-81
2021/08/13 02:10:15;;;;;;;15.85;14.15;;;;;;;14.82;100.00;101784.91;1049639;28;20048;-81
2021/08/13 02:10:49;;;;;;;20.42;13.18;;;;;;;14.76;100.00;101780.47;1048665;28;20178;-81
2021/08/13 02:11:23;;;;;;;16.92;13.95;;;;;;;14.75;100.00;101783.94;1049811;28;20059;-80
2021/08/13 02:11:55;;;;;;;18.25;15.60;;;;;;;14.71;100.00;101789.09;1052958;28;20047;-80
2021/08/13 02:12:27;;;;;;;19.77;14.00;;;;;;;14.74;100.00;101786.50;1053884;28;20052;-80
2021/08/13 02:12:58;;;;;;;15.38;13.30;;;;;;;14.76;100.00;101785.69;1053734;28;20059;-81
2021/08/13 02:13:30;;;;;;;15.65;14.02;;;;;;;14.78;100.00;101790.91;1052852;28;20411;-81
2021/08/13 02:14:01;;;;;;;16.02;14.43;;;;;;;14.80;100.00;101789.19;1048792;28;20044;-81
2021/08/13 02:14:33;;;;;;;15.27;13.68;;;;;;;14.77;100.00;101790.03;1044892;28;20496;-81
2021/08/13 02:15:07;;;;;;;17.70;13.93;;;;;;;14.77;100.00;101794.38;1045057;28;20056;-81
2021/08/13 02:15:45;;;;;;;14.20;12.73;;;;;;;14.75;100.00;101793.50;1049511;28;20048;-81
2021/08/13 02:16:23;;;;;;;15.40;13.73;;;;;;;14.72;100.00;101783.03;1050416;28;20071;-80
2021/08/13 02:16:56;;;;;;;12.60;11.32;;;;;;;14.69;100.00;101790.78;1057312;28;20047;-80
2021/08/13 02:17:31;;;;;;;13.45;11.75;;;;;;;14.68;100.00;101792.50;1057161;28;20044;-80
2021/08/13 02:18:20;;;;;;;15.35;13.10;;;;;;;14.70;100.00;101790.84;1055125;28;20048;-80
2021/08/13 02:19:11;;;;;;;13.30;11.75;;;;;;;14.73;100.00;101789.97;1053509;28;20047;-80
2021/08/13 02:19:57;;;;;;;14.80;11.32;;;;;;;14.72;100.00;101790.84;1050093;28;20052;-80
2021/08/13 02:20:32;;;;;;;13.43;12.07;;;;;;;14.71;100.00;101789.09;1053976;28;20471;-80
2021/08/13 02:21:06;;;;;;;16.67;12.15;;;;;;;14.71;100.00;101781.28;1057045;28;20055;-80
2021/08/13 02:21:43;;;;;;;16.23;12.77;;;;;;;14.73;100.00;101792.59;1056904;28;20044;-81
2021/08/13 02:22:15;;;;;;;12.75;11.48;;;;;;;14.76;100.00;101790.03;1057156;28;20050;-80
2021/08/13 02:22:46;;;;;;;12.70;11.38;;;;;;;14.74;100.00;101789.13;1052902;28;20040;-80
2021/08/13 02:23:19;;;;;;;13.20;11.90;;;;;;;14.69;100.00;101793.38;1052925;28;20044;-81
2021/08/13 02:23:51;;;;;;;15.25;13.68;;;;;;;14.66;100.00;101791.63;1052894;28;20496;-81
2021/08/13 02:24:22;;;;;;;13.05;11.73;;;;;;;14.69;100.00;101788.19;1053414;28;20052;-80
2021/08/13 02:24:54;;;;;;;16.48;13.38;;;;;;;14.72;100.00;101794.31;1052830;28;20044;-80
2021/08/13 02:25:26;;;;;;;14.70;13.23;;;;;;;14.74;100.00;101786.50;1053216;28;20428;-80
2021/08/13 02:25:57;;;;;;;18.10;13.13;;;;;;;14.76;100.00;101793.50;1057188;28;20357;-80
2021/08/13 02:26:29;;;;;;;16.13;13.77;;;;;;;14.75;100.00;101793.50;1057015;28;20048;-80
2021/08/13 02:27:01;;;;;;;15.02;12.55;;;;;;;14.72;100.00;101786.50;1056983;28;20047;-80
2021/08/13 02:27:33;;;;;;;14.48;12.05;;;;;;;14.71;100.00;101791.69;1052813;28;20059;-81
2021/08/13 02:28:05;;;;;;;13.80;12.40;;;;;;;14.72;100.00;101794.31;1048666;28;20444;-81
2021/08/13 02:28:36;;;;;;;14.75;13.07;;;;;;;14.71;100.00;101792.56;1049394;28;20048;-81
2021/08/13 02:29:08;;;;;;;15.00;13.57;;;;;;;14.69;100.00;101793.38;1049315;28;20064;-81
2021/08/13 02:29:40;;;;;;;15.55;11.60;;;;;;;14.69;100.00;101799.50;1048967;28;20056;-80
2021/08/13 02:30:13;;;;;;;16.00;13.55;;;;;;;14.70;100.00;101793.44;1052862;28;20059;-80
2021/08/13 02:30:44;;;;;;;14.10;12.63;;;;;;;14.74;100.00;101794.34;1052775;28;20051;-80
2021/08/13 02:31:18;;;;;;;14.15;12.85;;;;;;;14.74;100.00;101783.91;1052908;28;20040;-80
2021/08/13 02:31:50;;;;;;;15.20;13.55;;;;;;;14.75;100.00;101789.16;1052726;28;20059;-80
2021/08/13 02:32:24;;;;;;;17.17;13.80;;;;;;;14.76;100.00;101790.03;1053107;28;20048;-81